SPQU/AQP METAR and TAF weather

Enter ICAO airport designator
Station Type Date Time Source
SPQU METAR 2020/07/14 23:00 UTC NOAA

SPQU 142300Z 26004KT CAVOK 14/M13 Q1027 NOSIG RMK PP000


Station Type Date Time Source
SPQU Decoded METAR 2020/07/14 23:00 UTC NOAA

Arequipa, Peru (SPQU) 16-19S 071-33W 2539M
Jul 14, 2020 - 07:00 PM EDT / 2020.07.14 2300 UTC
Wind: from the W (260 degrees) at 5 MPH (4 KT):0
Visibility: greater than 7 mile(s):0
Temperature: 57 F (14 C)
Dew Point: 8 F (-13 C)
Relative Humidity: 14%
Pressure (altimeter): 30.33 in. Hg (1027 hPa)
ob: SPQU 142300Z 26004KT CAVOK 14/M13 Q1027 NOSIG RMK PP000
cycle: 23

Station Type Date Time Source
SPQU TAF 2020/07/14 18:36 UTC NOAA

TAF TAF SPQU 142330Z 1418/1518 CNL

Example: see airport list